sensor_id;sensor_type;location;lat;lon;timestamp;pressure;altitude;pressure_sealevel;temperature;humidity
60583;BME280;46415;47.536;19.066;2023-04-27T00:01:15;-18371.69;;;5.22;75.21
60583;BME280;46415;47.536;19.066;2023-04-27T00:04:18;-18369.63;;;5.15;75.57
60583;BME280;46415;47.536;19.066;2023-04-27T00:07:22;-18368.13;;;5.09;75.57
60583;BME280;46415;47.536;19.066;2023-04-27T00:10:25;-18368.66;;;5.11;77.04
60583;BME280;46415;47.536;19.066;2023-04-27T00:13:28;-18367.97;;;5.09;76.22
60583;BME280;46415;47.536;19.066;2023-04-27T00:16:31;-18366.59;;;5.04;78.91
60583;BME280;46415;47.536;19.066;2023-04-27T00:19:33;-18366.19;;;5.02;78.37
60583;BME280;46415;47.536;19.066;2023-04-27T00:22:38;-18369.06;;;5.13;77.76
60583;BME280;46415;47.536;19.066;2023-04-27T00:25:40;-18368.38;;;5.10;80.33
60583;BME280;46415;47.536;19.066;2023-04-27T00:28:43;-18368.94;;;5.12;77.25
60583;BME280;46415;47.536;19.066;2023-04-27T00:31:46;-18371.13;;;5.20;76.50
60583;BME280;46415;47.536;19.066;2023-04-27T00:34:49;-18370.84;;;5.19;79.59
60583;BME280;46415;47.536;19.066;2023-04-27T00:37:53;-18369.22;;;5.13;79.24
60583;BME280;46415;47.536;19.066;2023-04-27T00:41:04;-18366.03;;;5.02;80.52
60583;BME280;46415;47.536;19.066;2023-04-27T00:44:08;-18366.75;;;5.04;79.10
60583;BME280;46415;47.536;19.066;2023-04-27T00:47:11;-18368.38;;;5.10;77.47
60583;BME280;46415;47.536;19.066;2023-04-27T00:50:14;-18368.38;;;5.10;77.83
60583;BME280;46415;47.536;19.066;2023-04-27T00:53:18;-18367.56;;;5.07;79.08
60583;BME280;46415;47.536;19.066;2023-04-27T00:56:23;-18364.94;;;4.98;80.92
60583;BME280;46415;47.536;19.066;2023-04-27T00:59:27;-18364.94;;;4.98;78.45
60583;BME280;46415;47.536;19.066;2023-04-27T01:02:30;-18366.19;;;5.02;78.09
60583;BME280;46415;47.536;19.066;2023-04-27T01:05:34;-18364.69;;;4.97;78.77
60583;BME280;46415;47.536;19.066;2023-04-27T01:08:37;-18366.88;;;5.05;80.18
60583;BME280;46415;47.536;19.066;2023-04-27T01:11:40;-18368.94;;;5.12;78.23
60583;BME280;46415;47.536;19.066;2023-04-27T01:14:43;-18368.38;;;5.10;76.40
60583;BME280;46415;47.536;19.066;2023-04-27T01:17:47;-18366.03;;;5.02;77.21
60583;BME280;46415;47.536;19.066;2023-04-27T01:20:50;-18364.69;;;4.97;76.65
60583;BME280;46415;47.536;19.066;2023-04-27T01:23:53;-18364.00;;;4.94;77.03
60583;BME280;46415;47.536;19.066;2023-04-27T01:26:56;-18360.13;;;4.80;78.43
60583;BME280;46415;47.536;19.066;2023-04-27T01:29:59;-18361.50;;;4.85;77.59
60583;BME280;46415;47.536;19.066;2023-04-27T01:33:01;-18359.88;;;4.79;78.09
60583;BME280;46415;47.536;19.066;2023-04-27T01:36:05;-18357.66;;;4.71;78.83
60583;BME280;46415;47.536;19.066;2023-04-27T01:39:08;-18353.53;;;4.56;79.77
60583;BME280;46415;47.536;19.066;2023-04-27T01:42:11;-18351.75;;;4.49;79.76
60583;BME280;46415;47.536;19.066;2023-04-27T01:45:14;-18350.66;;;4.45;81.90
60583;BME280;46415;47.536;19.066;2023-04-27T01:48:17;-18347.34;;;4.33;83.86
60583;BME280;46415;47.536;19.066;2023-04-27T01:51:20;-18344.59;;;4.23;84.69
60583;BME280;46415;47.536;19.066;2023-04-27T01:54:23;-18341.03;;;4.09;85.93
60583;BME280;46415;47.536;19.066;2023-04-27T01:57:29;-18339.22;;;4.03;86.22
60583;BME280;46415;47.536;19.066;2023-04-27T02:00:33;-18335.66;;;3.90;87.09
60583;BME280;46415;47.536;19.066;2023-04-27T02:03:35;-18334.00;;;3.84;87.39
60583;BME280;46415;47.536;19.066;2023-04-27T02:06:39;-18332.47;;;3.78;90.34
60583;BME280;46415;47.536;19.066;2023-04-27T02:09:43;-18331.09;;;3.73;90.69
60583;BME280;46415;47.536;19.066;2023-04-27T02:12:47;-18330.84;;;3.72;89.53
60583;BME280;46415;47.536;19.066;2023-04-27T02:15:50;-18329.88;;;3.68;89.31
60583;BME280;46415;47.536;19.066;2023-04-27T02:18:54;-18328.22;;;3.62;90.21
60583;BME280;46415;47.536;19.066;2023-04-27T02:21:56;-18328.50;;;3.63;89.58
60583;BME280;46415;47.536;19.066;2023-04-27T02:24:59;-18330.16;;;3.69;88.82
60583;BME280;46415;47.536;19.066;2023-04-27T02:28:02;-18334.00;;;3.84;87.25
60583;BME280;46415;47.536;19.066;2023-04-27T02:31:08;-18333.44;;;3.82;87.81
60583;BME280;46415;47.536;19.066;2023-04-27T02:34:11;-18330.97;;;3.73;89.05
60583;BME280;46415;47.536;19.066;2023-04-27T02:37:14;-18328.34;;;3.63;90.69
60583;BME280;46415;47.536;19.066;2023-04-27T02:40:16;-18326.28;;;3.55;90.36
60583;BME280;46415;47.536;19.066;2023-04-27T02:43:20;-18325.88;;;3.54;90.24
60583;BME280;46415;47.536;19.066;2023-04-27T02:46:23;-18324.50;;;3.49;89.89
60583;BME280;46415;47.536;19.066;2023-04-27T02:49:28;-18324.91;;;3.50;90.39
60583;BME280;46415;47.536;19.066;2023-04-27T02:52:31;-18323.69;;;3.46;89.95
60583;BME280;46415;47.536;19.066;2023-04-27T02:55:33;-18323.41;;;3.45;90.72
60583;BME280;46415;47.536;19.066;2023-04-27T02:58:36;-18324.63;;;3.49;90.46
60583;BME280;46415;47.536;19.066;2023-04-27T03:01:39;-18323.53;;;3.45;90.42
60583;BME280;46415;47.536;19.066;2023-04-27T03:04:42;-18322.84;;;3.43;93.34
60583;BME280;46415;47.536;19.066;2023-04-27T03:07:45;-18321.75;;;3.39;95.14
60583;BME280;46415;47.536;19.066;2023-04-27T03:10:48;-18320.91;;;3.36;95.86
60583;BME280;46415;47.536;19.066;2023-04-27T03:13:51;-18319.81;;;3.32;96.86
60583;BME280;46415;47.536;19.066;2023-04-27T03:16:53;-18318.72;;;3.27;97.68
60583;BME280;46415;47.536;19.066;2023-04-27T03:19:59;-18316.94;;;3.21;98.90
60583;BME280;46415;47.536;19.066;2023-04-27T03:23:02;-18316.53;;;3.19;98.87
60583;BME280;46415;47.536;19.066;2023-04-27T03:26:09;-18317.75;;;3.24;95.51
60583;BME280;46415;47.536;19.066;2023-04-27T03:29:12;-18315.69;;;3.16;96.44
60583;BME280;46415;47.536;19.066;2023-04-27T03:32:15;-18315.56;;;3.16;94.72
60583;BME280;46415;47.536;19.066;2023-04-27T03:35:18;-18314.88;;;3.13;94.28
60583;BME280;46415;47.536;19.066;2023-04-27T03:38:21;-18312.25;;;3.04;94.61
60583;BME280;46415;47.536;19.066;2023-04-27T03:41:24;-18310.31;;;2.97;94.91
60583;BME280;46415;47.536;19.066;2023-04-27T03:44:27;-18310.03;;;2.96;95.69
60583;BME280;46415;47.536;19.066;2023-04-27T03:47:30;-18311.28;;;3.00;94.84
60583;BME280;46415;47.536;19.066;2023-04-27T03:50:33;-18311.16;;;3.00;94.95
60583;BME280;46415;47.536;19.066;2023-04-27T03:53:36;-18309.78;;;2.95;95.76
60583;BME280;46415;47.536;19.066;2023-04-27T03:56:39;-18310.03;;;2.96;96.92
60583;BME280;46415;47.536;19.066;2023-04-27T03:59:42;-18310.19;;;2.96;98.39
60583;BME280;46415;47.536;19.066;2023-04-27T04:02:46;-18312.38;;;3.04;96.27
60583;BME280;46415;47.536;19.066;2023-04-27T04:05:49;-18317.19;;;3.22;93.18
60583;BME280;46415;47.536;19.066;2023-04-27T04:08:52;-18316.53;;;3.19;93.04
60583;BME280;46415;47.536;19.066;2023-04-27T04:11:55;-18317.91;;;3.24;92.45
60583;BME280;46415;47.536;19.066;2023-04-27T04:14:59;-18318.72;;;3.27;93.27
60583;BME280;46415;47.536;19.066;2023-04-27T04:18:02;-18320.50;;;3.34;92.62
60583;BME280;46415;47.536;19.066;2023-04-27T04:21:05;-18321.19;;;3.37;91.86
60583;BME280;46415;47.536;19.066;2023-04-27T04:24:08;-18325.47;;;3.52;90.61
60583;BME280;46415;47.536;19.066;2023-04-27T04:27:12;-18328.91;;;3.65;90.66
60583;BME280;46415;47.536;19.066;2023-04-27T04:30:15;-18330.84;;;3.72;90.77
60583;BME280;46415;47.536;19.066;2023-04-27T04:33:18;-18336.75;;;3.94;90.16
60583;BME280;46415;47.536;19.066;2023-04-27T04:36:21;-18340.19;;;4.06;91.17
60583;BME280;46415;47.536;19.066;2023-04-27T04:39:30;-18342.81;;;4.16;92.08
60583;BME280;46415;47.536;19.066;2023-04-27T04:42:33;-18348.59;;;4.37;90.53
60583;BME280;46415;47.536;19.066;2023-04-27T04:45:37;-18352.56;;;4.52;90.44
60583;BME280;46415;47.536;19.066;2023-04-27T04:48:40;-18357.13;;;4.69;86.73
60583;BME280;46415;47.536;19.066;2023-04-27T04:51:43;-18360.97;;;4.83;84.95
60583;BME280;46415;47.536;19.066;2023-04-27T04:54:50;-18364.94;;;4.98;84.51
60583;BME280;46415;47.536;19.066;2023-04-27T04:57:53;-18366.88;;;5.05;83.08
60583;BME280;46415;47.536;19.066;2023-04-27T05:00:56;-18370.72;;;5.19;82.81
60583;BME280;46415;47.536;19.066;2023-04-27T05:03:59;-18376.22;;;5.39;82.77
60583;BME280;46415;47.536;19.066;2023-04-27T05:07:02;-18381.03;;;5.57;80.89
60583;BME280;46415;47.536;19.066;2023-04-27T05:10:08;-18386.25;;;5.76;78.95
60583;BME280;46415;47.536;19.066;2023-04-27T05:13:11;-18389.28;;;5.87;78.29
60583;BME280;46415;47.536;19.066;2023-04-27T05:16:13;-18393.13;;;6.01;78.23
60583;BME280;46415;47.536;19.066;2023-04-27T05:19:17;-18400.41;;;6.28;79.12
60583;BME280;46415;47.536;19.066;2023-04-27T05:22:21;-18404.13;;;6.42;78.22
60583;BME280;46415;47.536;19.066;2023-04-27T05:25:24;-18414.28;;;6.79;75.56
60583;BME280;46415;47.536;19.066;2023-04-27T05:28:27;-18459.56;;;8.46;67.58
60583;BME280;46415;47.536;19.066;2023-04-27T05:31:30;-18474.25;;;9.00;63.00
60583;BME280;46415;47.536;19.066;2023-04-27T05:34:33;-18466.84;;;8.73;63.75
60583;BME280;46415;47.536;19.066;2023-04-27T05:37:36;-18458.75;;;8.43;65.10
60583;BME280;46415;47.536;19.066;2023-04-27T05:40:38;-18456.84;;;8.36;66.05
60583;BME280;46415;47.536;19.066;2023-04-27T05:43:41;-18457.09;;;8.37;63.53
60583;BME280;46415;47.536;19.066;2023-04-27T05:46:44;-18459.56;;;8.46;64.40
60583;BME280;46415;47.536;19.066;2023-04-27T05:49:51;-18461.91;;;8.55;65.50
60583;BME280;46415;47.536;19.066;2023-04-27T05:52:56;-18465.19;;;8.67;62.97
60583;BME280;46415;47.536;19.066;2023-04-27T05:55:59;-18469.72;;;8.84;61.83
60583;BME280;46415;47.536;19.066;2023-04-27T05:59:03;-18479.72;;;9.21;61.35
60583;BME280;46415;47.536;19.066;2023-04-27T06:02:06;-18493.44;;;9.71;59.04
60583;BME280;46415;47.536;19.066;2023-04-27T06:05:09;-18509.59;;;10.31;56.72
60583;BME280;46415;47.536;19.066;2023-04-27T06:08:12;-18512.75;;;10.43;53.72
60583;BME280;46415;47.536;19.066;2023-04-27T06:11:15;-18522.06;;;10.77;52.86
60583;BME280;46415;47.536;19.066;2023-04-27T06:14:18;-18524.13;;;10.85;47.77
60583;BME280;46415;47.536;19.066;2023-04-27T06:17:21;-18528.63;;;11.01;50.52
60583;BME280;46415;47.536;19.066;2023-04-27T06:20:24;-18530.69;;;11.09;47.22
60583;BME280;46415;47.536;19.066;2023-04-27T06:23:27;-18531.91;;;11.14;46.34
60583;BME280;46415;47.536;19.066;2023-04-27T06:26:30;-18532.75;;;11.17;46.66
60583;BME280;46415;47.536;19.066;2023-04-27T06:29:33;-18534.09;;;11.22;46.13
60583;BME280;46415;47.536;19.066;2023-04-27T06:32:36;-18533.28;;;11.19;45.54
60583;BME280;46415;47.536;19.066;2023-04-27T06:35:39;-18532.06;;;11.14;45.69
60583;BME280;46415;47.536;19.066;2023-04-27T06:38:42;-18532.06;;;11.14;45.16
60583;BME280;46415;47.536;19.066;2023-04-27T06:41:45;-18524.38;;;10.86;44.38
60583;BME280;46415;47.536;19.066;2023-04-27T06:44:53;-18523.44;;;10.82;45.17
60583;BME280;46415;47.536;19.066;2023-04-27T06:47:57;-18522.62;;;10.79;44.80
60583;BME280;46415;47.536;19.066;2023-04-27T06:51:00;-18515.78;;;10.54;44.71
60583;BME280;46415;47.536;19.066;2023-04-27T06:54:03;-18514.66;;;10.50;44.47
60583;BME280;46415;47.536;19.066;2023-04-27T06:57:06;-18519.88;;;10.69;44.14
60583;BME280;46415;47.536;19.066;2023-04-27T07:00:10;-18525.50;;;10.90;44.80
60583;BME280;46415;47.536;19.066;2023-04-27T07:03:14;-18534.66;;;11.24;43.92
60583;BME280;46415;47.536;19.066;2023-04-27T07:06:18;-18534.78;;;11.24;44.17
60583;BME280;46415;47.536;19.066;2023-04-27T07:09:21;-18532.75;;;11.17;43.55
60583;BME280;46415;47.536;19.066;2023-04-27T07:12:29;-18535.88;;;11.28;41.18
60583;BME280;46415;47.536;19.066;2023-04-27T07:15:33;-18533.97;;;11.21;41.34
60583;BME280;46415;47.536;19.066;2023-04-27T07:18:36;-18533.00;;;11.18;41.32
60583;BME280;46415;47.536;19.066;2023-04-27T07:21:39;-18535.75;;;11.28;40.94
60583;BME280;46415;47.536;19.066;2023-04-27T07:24:42;-18542.03;;;11.51;40.29
60583;BME280;46415;47.536;19.066;2023-04-27T07:27:45;-18542.31;;;11.52;40.33
60583;BME280;46415;47.536;19.066;2023-04-27T07:30:48;-18545.19;;;11.63;40.69
60583;BME280;46415;47.536;19.066;2023-04-27T07:33:51;-18547.78;;;11.72;41.30
60583;BME280;46415;47.536;19.066;2023-04-27T07:36:54;-18549.44;;;11.78;41.00
60583;BME280;46415;47.536;19.066;2023-04-27T07:39:58;-18549.56;;;11.79;39.65
60583;BME280;46415;47.536;19.066;2023-04-27T07:43:01;-18557.50;;;12.08;39.13
60583;BME280;46415;47.536;19.066;2023-04-27T07:46:05;-18567.06;;;12.44;38.55
60583;BME280;46415;47.536;19.066;2023-04-27T07:49:09;-18566.94;;;12.43;39.55
60583;BME280;46415;47.536;19.066;2023-04-27T07:52:15;-18569.25;;;12.52;38.71
60583;BME280;46415;47.536;19.066;2023-04-27T07:55:19;-18574.72;;;12.72;39.80
60583;BME280;46415;47.536;19.066;2023-04-27T07:58:22;-18584.28;;;13.07;37.01
60583;BME280;46415;47.536;19.066;2023-04-27T08:01:26;-18593.88;;;13.43;36.58
60583;BME280;46415;47.536;19.066;2023-04-27T08:04:29;-18592.78;;;13.39;35.31
60583;BME280;46415;47.536;19.066;2023-04-27T08:07:33;-18584.84;;;13.09;33.34
60583;BME280;46415;47.536;19.066;2023-04-27T08:10:42;-18599.06;;;13.62;34.18
60583;BME280;46415;47.536;19.066;2023-04-27T08:13:45;-18596.19;;;13.52;34.56
60583;BME280;46415;47.536;19.066;2023-04-27T08:16:48;-18613.81;;;14.17;34.63
60583;BME280;46415;47.536;19.066;2023-04-27T08:19:51;-18626.22;;;14.63;34.01
60583;BME280;46415;47.536;19.066;2023-04-27T08:22:54;-18627.72;;;14.68;32.20
60583;BME280;46415;47.536;19.066;2023-04-27T08:25:56;-18625.81;;;14.61;32.46
60583;BME280;46415;47.536;19.066;2023-04-27T08:29:01;-18628.94;;;14.73;31.57
60583;BME280;46415;47.536;19.066;2023-04-27T08:32:24;-18636.19;;;15.00;31.70
60583;BME280;46415;47.536;19.066;2023-04-27T08:35:27;-18632.78;;;14.87;31.19
60583;BME280;46415;47.536;19.066;2023-04-27T08:38:30;-18626.78;;;14.65;31.02
60583;BME280;46415;47.536;19.066;2023-04-27T08:41:33;-18616.13;;;14.25;32.00
60583;BME280;46415;47.536;19.066;2023-04-27T08:44:39;-18629.22;;;14.74;31.70
60583;BME280;46415;47.536;19.066;2023-04-27T08:47:42;-18639.03;;;15.10;31.37
60583;BME280;46415;47.536;19.066;2023-04-27T08:50:48;-18630.44;;;14.79;30.41
60583;BME280;46415;47.536;19.066;2023-04-27T08:53:54;-18627.44;;;14.67;31.66
60583;BME280;46415;47.536;19.066;2023-04-27T08:56:57;-18638.50;;;15.08;32.57
60583;BME280;46415;47.536;19.066;2023-04-27T09:00:00;-18641.62;;;15.20;31.25
60583;BME280;46415;47.536;19.066;2023-04-27T09:03:03;-18639.03;;;15.10;31.58
60583;BME280;46415;47.536;19.066;2023-04-27T09:06:07;-18647.91;;;15.43;31.13
60583;BME280;46415;47.536;19.066;2023-04-27T09:09:20;-18655.97;;;15.73;31.60
60583;BME280;46415;47.536;19.066;2023-04-27T09:12:26;-18657.19;;;15.78;30.05
60583;BME280;46415;47.536;19.066;2023-04-27T09:15:29;-18640.13;;;15.15;31.41
60583;BME280;46415;47.536;19.066;2023-04-27T09:18:35;-18641.50;;;15.20;31.47
60583;BME280;46415;47.536;19.066;2023-04-27T09:21:39;-18637.00;;;15.03;32.37
60583;BME280;46415;47.536;19.066;2023-04-27T09:24:52;-18638.78;;;15.09;32.72
60583;BME280;46415;47.536;19.066;2023-04-27T09:27:56;-18637.13;;;15.03;32.15
60583;BME280;46415;47.536;19.066;2023-04-27T09:31:03;-18629.78;;;14.76;32.70
60583;BME280;46415;47.536;19.066;2023-04-27T09:34:06;-18624.59;;;14.57;32.24
60583;BME280;46415;47.536;19.066;2023-04-27T09:37:09;-18628.53;;;14.72;32.47
60583;BME280;46415;47.536;19.066;2023-04-27T09:40:12;-18629.09;;;14.74;32.54
60583;BME280;46415;47.536;19.066;2023-04-27T09:43:16;-18632.63;;;14.87;32.84
60583;BME280;46415;47.536;19.066;2023-04-27T09:46:19;-18631.53;;;14.83;32.78
60583;BME280;46415;47.536;19.066;2023-04-27T09:49:26;-18635.63;;;14.98;31.65
60583;BME280;46415;47.536;19.066;2023-04-27T09:52:30;-18644.50;;;15.31;31.67
60583;BME280;46415;47.536;19.066;2023-04-27T09:55:42;-18649.97;;;15.51;31.07
60583;BME280;46415;47.536;19.066;2023-04-27T10:02:15;-18662.38;;;15.97;30.02
60583;BME280;46415;47.536;19.066;2023-04-27T10:06:04;-18676.69;;;16.50;29.61
60583;BME280;46415;47.536;19.066;2023-04-27T10:09:12;-18667.94;;;16.18;29.27
60583;BME280;46415;47.536;19.066;2023-04-27T10:12:27;-18682.94;;;16.73;30.00
60583;BME280;46415;47.536;19.066;2023-04-27T10:15:30;-18690.28;;;17.01;29.03
60583;BME280;46415;47.536;19.066;2023-04-27T10:18:33;-18673.41;;;16.38;29.12
60583;BME280;46415;47.536;19.066;2023-04-27T10:21:37;-18665.91;;;16.10;29.84
60583;BME280;46415;47.536;19.066;2023-04-27T10:24:40;-18662.09;;;15.96;30.79
60583;BME280;46415;47.536;19.066;2023-04-27T10:30:54;-18647.50;;;15.42;31.14
60583;BME280;46415;47.536;19.066;2023-04-27T10:34:10;-18634.69;;;14.94;31.13
60583;BME280;46415;47.536;19.066;2023-04-27T10:37:17;-18660.06;;;15.88;31.11
60583;BME280;46415;47.536;19.066;2023-04-27T10:40:32;-18669.03;;;16.22;30.51
60583;BME280;46415;47.536;19.066;2023-04-27T10:43:38;-18676.00;;;16.48;30.10
60583;BME280;46415;47.536;19.066;2023-04-27T10:46:52;-18659.09;;;15.85;31.05
60583;BME280;46415;47.536;19.066;2023-04-27T10:49:55;-18659.91;;;15.88;30.09
60583;BME280;46415;47.536;19.066;2023-04-27T10:53:05;-18672.03;;;16.33;29.66
60583;BME280;46415;47.536;19.066;2023-04-27T10:56:09;-18684.03;;;16.78;28.92
60583;BME280;46415;47.536;19.066;2023-04-27T10:59:12;-18661.13;;;15.92;29.90
60583;BME280;46415;47.536;19.066;2023-04-27T11:02:24;-18653.38;;;15.64;30.69
60583;BME280;46415;47.536;19.066;2023-04-27T11:05:27;-18643.53;;;15.27;30.65
60583;BME280;46415;47.536;19.066;2023-04-27T11:08:42;-18653.91;;;15.66;31.39
60583;BME280;46415;47.536;19.066;2023-04-27T11:11:45;-18675.84;;;16.47;30.80
60583;BME280;46415;47.536;19.066;2023-04-27T11:14:49;-18678.03;;;16.55;28.55
60583;BME280;46415;47.536;19.066;2023-04-27T11:18:03;-18679.25;;;16.60;28.44
60583;BME280;46415;47.536;19.066;2023-04-27T11:21:10;-18675.03;;;16.44;27.96
60583;BME280;46415;47.536;19.066;2023-04-27T11:24:13;-18683.47;;;16.76;28.02
60583;BME280;46415;47.536;19.066;2023-04-27T11:27:17;-18682.53;;;16.72;28.22
60583;BME280;46415;47.536;19.066;2023-04-27T11:30:23;-18680.09;;;16.63;28.87
60583;BME280;46415;47.536;19.066;2023-04-27T11:33:26;-18690.56;;;17.02;28.86
60583;BME280;46415;47.536;19.066;2023-04-27T11:36:29;-18693.84;;;17.14;28.21
60583;BME280;46415;47.536;19.066;2023-04-27T11:39:38;-18689.75;;;16.99;28.82
60583;BME280;46415;47.536;19.066;2023-04-27T11:42:55;-18667.53;;;16.16;30.00
60583;BME280;46415;47.536;19.066;2023-04-27T11:46:03;-18650.91;;;15.55;30.59
60583;BME280;46415;47.536;19.066;2023-04-27T11:49:07;-18658.69;;;15.83;30.67
60583;BME280;46415;47.536;19.066;2023-04-27T11:52:10;-18674.63;;;16.43;30.39
60583;BME280;46415;47.536;19.066;2023-04-27T11:55:13;-18675.84;;;16.47;29.79
60583;BME280;46415;47.536;19.066;2023-04-27T11:58:19;-18663.31;;;16.01;29.83
60583;BME280;46415;47.536;19.066;2023-04-27T12:01:22;-18668.22;;;16.19;29.45
60583;BME280;46415;47.536;19.066;2023-04-27T12:04:39;-18670.13;;;16.26;29.22
60583;BME280;46415;47.536;19.066;2023-04-27T12:07:42;-18667.94;;;16.18;29.62
60583;BME280;46415;47.536;19.066;2023-04-27T12:10:45;-18668.09;;;16.18;29.07
60583;BME280;46415;47.536;19.066;2023-04-27T12:13:48;-18673.94;;;16.40;28.79
60583;BME280;46415;47.536;19.066;2023-04-27T12:16:51;-18666.03;;;16.11;30.25
60583;BME280;46415;47.536;19.066;2023-04-27T12:19:54;-18655.16;;;15.70;31.49
60583;BME280;46415;47.536;19.066;2023-04-27T12:22:57;-18643.97;;;15.29;31.96
60583;BME280;46415;47.536;19.066;2023-04-27T12:26:00;-18638.91;;;15.10;32.67
60583;BME280;46415;47.536;19.066;2023-04-27T12:29:03;-18644.50;;;15.31;32.22
60583;BME280;46415;47.536;19.066;2023-04-27T12:32:06;-18662.63;;;15.98;31.52
60583;BME280;46415;47.536;19.066;2023-04-27T12:35:09;-18668.22;;;16.19;29.84
60583;BME280;46415;47.536;19.066;2023-04-27T12:38:12;-18672.03;;;16.33;30.14
60583;BME280;46415;47.536;19.066;2023-04-27T12:41:15;-18669.59;;;16.24;29.82
60583;BME280;46415;47.536;19.066;2023-04-27T12:44:19;-18664.97;;;16.07;29.65
60583;BME280;46415;47.536;19.066;2023-04-27T12:47:23;-18653.50;;;15.64;30.09
60583;BME280;46415;47.536;19.066;2023-04-27T12:50:30;-18665.22;;;16.08;30.95
60583;BME280;46415;47.536;19.066;2023-04-27T12:53:33;-18659.78;;;15.87;30.53
60583;BME280;46415;47.536;19.066;2023-04-27T12:56:36;-18658.69;;;15.83;31.85
60583;BME280;46415;47.536;19.066;2023-04-27T12:59:39;-18656.50;;;15.75;29.94
60583;BME280;46415;47.536;19.066;2023-04-27T13:02:43;-18661.97;;;15.96;30.91
60583;BME280;46415;47.536;19.066;2023-04-27T13:05:48;-18671.78;;;16.32;29.01
60583;BME280;46415;47.536;19.066;2023-04-27T13:08:52;-18677.75;;;16.54;29.50
60583;BME280;46415;47.536;19.066;2023-04-27T13:11:54;-18682.53;;;16.72;28.91
60583;BME280;46415;47.536;19.066;2023-04-27T13:15:02;-18688.38;;;16.94;29.52
60583;BME280;46415;47.536;19.066;2023-04-27T13:18:05;-18667.41;;;16.16;29.78
60583;BME280;46415;47.536;19.066;2023-04-27T13:21:08;-18663.03;;;16.00;30.27
60583;BME280;46415;47.536;19.066;2023-04-27T13:24:11;-18673.00;;;16.37;29.73
60583;BME280;46415;47.536;19.066;2023-04-27T13:27:14;-18683.09;;;16.74;28.87
60583;BME280;46415;47.536;19.066;2023-04-27T13:30:19;-18697.78;;;17.29;30.07
60583;BME280;46415;47.536;19.066;2023-04-27T13:33:22;-18709.09;;;17.71;27.93
60583;BME280;46415;47.536;19.066;2023-04-27T13:36:25;-18707.31;;;17.64;28.45
60583;BME280;46415;47.536;19.066;2023-04-27T13:39:28;-18722.81;;;18.22;27.67
60583;BME280;46415;47.536;19.066;2023-04-27T13:42:31;-18716.69;;;17.99;27.35
60583;BME280;46415;47.536;19.066;2023-04-27T13:45:34;-18714.25;;;17.90;28.39
60583;BME280;46415;47.536;19.066;2023-04-27T13:48:37;-18711.41;;;17.79;27.89
60583;BME280;46415;47.536;19.066;2023-04-27T13:51:40;-18712.91;;;17.85;28.09
60583;BME280;46415;47.536;19.066;2023-04-27T13:54:44;-18725.41;;;18.31;27.47
60583;BME280;46415;47.536;19.066;2023-04-27T13:57:46;-18717.53;;;18.02;27.38
60583;BME280;46415;47.536;19.066;2023-04-27T14:00:49;-18710.19;;;17.75;27.57
60583;BME280;46415;47.536;19.066;2023-04-27T14:03:54;-18722.13;;;18.19;28.04
60583;BME280;46415;47.536;19.066;2023-04-27T14:06:57;-18709.22;;;17.71;28.49
60583;BME280;46415;47.536;19.066;2023-04-27T14:10:03;-18712.63;;;17.84;28.27
60583;BME280;46415;47.536;19.066;2023-04-27T14:13:06;-18722.81;;;18.22;27.31
60583;BME280;46415;47.536;19.066;2023-04-27T14:16:09;-18720.50;;;18.13;27.78
60583;BME280;46415;47.536;19.066;2023-04-27T14:19:12;-18730.56;;;18.51;28.14
60583;BME280;46415;47.536;19.066;2023-04-27T14:22:18;-18742.53;;;18.95;26.40
60583;BME280;46415;47.536;19.066;2023-04-27T14:25:21;-18740.22;;;18.87;25.58
60583;BME280;46415;47.536;19.066;2023-04-27T14:28:24;-18728.66;;;18.44;26.34
60583;BME280;46415;47.536;19.066;2023-04-27T14:31:27;-18736.69;;;18.73;26.07
60583;BME280;46415;47.536;19.066;2023-04-27T14:34:31;-18745.81;;;19.07;25.70
60583;BME280;46415;47.536;19.066;2023-04-27T14:37:34;-18745.81;;;19.07;25.53
60583;BME280;46415;47.536;19.066;2023-04-27T14:40:36;-18734.94;;;18.67;25.44
60583;BME280;46415;47.536;19.066;2023-04-27T14:43:39;-18735.47;;;18.69;25.62
60583;BME280;46415;47.536;19.066;2023-04-27T14:46:43;-18736.00;;;18.71;25.76
60583;BME280;46415;47.536;19.066;2023-04-27T14:49:46;-18733.72;;;18.62;25.63
60583;BME280;46415;47.536;19.066;2023-04-27T14:52:49;-18740.62;;;18.88;25.68
60583;BME280;46415;47.536;19.066;2023-04-27T14:55:52;-18764.00;;;19.75;24.31
60583;BME280;46415;47.536;19.066;2023-04-27T14:58:56;-18797.81;;;21.01;23.45
60583;BME280;46415;47.536;19.066;2023-04-27T15:01:59;-18788.84;;;20.68;23.41
60583;BME280;46415;47.536;19.066;2023-04-27T15:05:02;-18809.75;;;21.46;23.74
60583;BME280;46415;47.536;19.066;2023-04-27T15:08:05;-18847.56;;;22.87;21.51
60583;BME280;46415;47.536;19.066;2023-04-27T15:11:08;-18864.88;;;23.52;21.03
60583;BME280;46415;47.536;19.066;2023-04-27T15:14:11;-18828.31;;;22.15;21.93
60583;BME280;46415;47.536;19.066;2023-04-27T15:17:13;-18845.66;;;22.80;21.29
60583;BME280;46415;47.536;19.066;2023-04-27T15:20:17;-18895.16;;;24.65;20.19
60583;BME280;46415;47.536;19.066;2023-04-27T15:23:21;-18930.69;;;25.98;18.26
60583;BME280;46415;47.536;19.066;2023-04-27T15:26:27;-18929.47;;;25.94;17.97
60583;BME280;46415;47.536;19.066;2023-04-27T15:29:30;-18905.44;;;25.04;18.46
60583;BME280;46415;47.536;19.066;2023-04-27T15:32:32;-18950.78;;;26.74;17.62
60583;BME280;46415;47.536;19.066;2023-04-27T15:35:36;-18953.63;;;26.85;17.02
60583;BME280;46415;47.536;19.066;2023-04-27T15:38:43;-18940.53;;;26.35;17.26
60583;BME280;46415;47.536;19.066;2023-04-27T15:41:45;-18985.41;;;28.04;16.27
60583;BME280;46415;47.536;19.066;2023-04-27T15:44:49;-18997.13;;;28.48;15.93
60583;BME280;46415;47.536;19.066;2023-04-27T15:47:52;-19042.31;;;30.18;15.28
60583;BME280;46415;47.536;19.066;2023-04-27T15:50:55;-19038.41;;;30.03;14.61
60583;BME280;46415;47.536;19.066;2023-04-27T15:53:58;-19029.81;;;29.71;15.16
60583;BME280;46415;47.536;19.066;2023-04-27T15:57:01;-19030.88;;;29.75;15.06
60583;BME280;46415;47.536;19.066;2023-04-27T16:00:06;-19001.44;;;28.64;14.91